sensor_id;sensor_type;location;lat;lon;timestamp;pressure;altitude;pressure_sealevel;temperature;humidity
54994;BME280;40891;47.242;8.648;2024-01-30T00:00:31;97823.09;;;3.20;100.00
54994;BME280;40891;47.242;8.648;2024-01-30T00:02:57;97825.44;;;3.18;100.00
54994;BME280;40891;47.242;8.648;2024-01-30T00:05:22;97824.63;;;3.17;100.00
54994;BME280;40891;47.242;8.648;2024-01-30T00:07:47;97823.78;;;3.13;100.00
54994;BME280;40891;47.242;8.648;2024-01-30T00:10:13;97823.00;;;3.13;100.00
54994;BME280;40891;47.242;8.648;2024-01-30T00:12:38;97824.59;;;3.14;100.00
54994;BME280;40891;47.242;8.648;2024-01-30T00:15:03;97830.47;;;3.12;100.00
54994;BME280;40891;47.242;8.648;2024-01-30T00:17:30;97823.75;;;3.10;100.00
54994;BME280;40891;47.242;8.648;2024-01-30T00:19:56;97823.75;;;3.10;100.00
54994;BME280;40891;47.242;8.648;2024-01-30T00:22:21;97814.34;;;3.11;100.00
54994;BME280;40891;47.242;8.648;2024-01-30T00:24:46;97823.75;;;3.10;100.00
54994;BME280;40891;47.242;8.648;2024-01-30T00:27:11;97823.31;;;3.08;100.00
54994;BME280;40891;47.242;8.648;2024-01-30T00:29:37;97824.47;;;3.07;100.00
54994;BME280;40891;47.242;8.648;2024-01-30T00:32:02;97832.72;;;3.07;100.00
54994;BME280;40891;47.242;8.648;2024-01-30T00:34:27;97832.72;;;3.07;100.00
54994;BME280;40891;47.242;8.648;2024-01-30T00:36:53;97824.06;;;3.05;100.00
54994;BME280;40891;47.242;8.648;2024-01-30T00:39:18;97822.03;;;3.02;100.00
54994;BME280;40891;47.242;8.648;2024-01-30T00:41:44;97826.75;;;3.01;100.00
54994;BME280;40891;47.242;8.648;2024-01-30T00:44:10;97825.94;;;3.01;100.00
54994;BME280;40891;47.242;8.648;2024-01-30T00:46:35;97828.34;;;3.02;100.00
54994;BME280;40891;47.242;8.648;2024-01-30T00:49:00;97826.00;;;3.04;100.00
54994;BME280;40891;47.242;8.648;2024-01-30T00:51:26;97825.63;;;3.06;100.00
54994;BME280;40891;47.242;8.648;2024-01-30T00:53:51;97819.28;;;3.02;100.00
54994;BME280;40891;47.242;8.648;2024-01-30T00:56:16;97821.66;;;3.03;100.00
54994;BME280;40891;47.242;8.648;2024-01-30T00:58:43;97822.47;;;3.04;100.00
54994;BME280;40891;47.242;8.648;2024-01-30T01:01:08;97825.94;;;3.01;100.00
54994;BME280;40891;47.242;8.648;2024-01-30T01:03:34;97818.88;;;3.00;100.00
54994;BME280;40891;47.242;8.648;2024-01-30T01:05:59;97817.69;;;3.01;100.00
54994;BME280;40891;47.242;8.648;2024-01-30T01:08:25;97820.91;;;3.03;100.00
54994;BME280;40891;47.242;8.648;2024-01-30T01:10:50;97824.06;;;3.05;100.00
54994;BME280;40891;47.242;8.648;2024-01-30T01:13:15;97820.53;;;3.04;100.00
54994;BME280;40891;47.242;8.648;2024-01-30T01:15:41;97831.09;;;3.02;100.00
54994;BME280;40891;47.242;8.648;2024-01-30T01:18:06;97826.31;;;2.99;100.00
54994;BME280;40891;47.242;8.648;2024-01-30T01:20:31;97828.28;;;2.99;100.00
54994;BME280;40891;47.242;8.648;2024-01-30T01:22:57;97825.47;;;2.95;100.00
54994;BME280;40891;47.242;8.648;2024-01-30T01:25:22;97825.41;;;2.92;100.00
54994;BME280;40891;47.242;8.648;2024-01-30T01:27:47;97825.06;;;2.93;100.00
54994;BME280;40891;47.242;8.648;2024-01-30T01:30:17;97819.50;;;2.90;100.00
54994;BME280;40891;47.242;8.648;2024-01-30T01:32:50;97824.56;;;2.88;100.00
54994;BME280;40891;47.242;8.648;2024-01-30T01:35:21;97827.31;;;2.88;100.00
54994;BME280;40891;47.242;8.648;2024-01-30T01:37:46;97826.88;;;2.86;100.00
54994;BME280;40891;47.242;8.648;2024-01-30T01:40:12;97827.19;;;2.81;100.00
54994;BME280;40891;47.242;8.648;2024-01-30T01:42:37;97825.66;;;2.83;100.00
54994;BME280;40891;47.242;8.648;2024-01-30T01:45:03;97820.09;;;2.80;100.00
54994;BME280;40891;47.242;8.648;2024-01-30T01:47:29;97811.50;;;2.81;100.00
54994;BME280;40891;47.242;8.648;2024-01-30T01:49:54;97814.97;;;2.78;100.00
54994;BME280;40891;47.242;8.648;2024-01-30T01:52:19;97816.50;;;2.75;100.00
54994;BME280;40891;47.242;8.648;2024-01-30T01:54:45;97815.72;;;2.75;100.00
54994;BME280;40891;47.242;8.648;2024-01-30T01:57:10;97811.44;;;2.78;100.00
54994;BME280;40891;47.242;8.648;2024-01-30T01:59:36;97812.16;;;2.74;100.00
54994;BME280;40891;47.242;8.648;2024-01-30T02:02:02;97818.41;;;2.71;100.00
54994;BME280;40891;47.242;8.648;2024-01-30T02:04:28;97816.00;;;2.70;100.00
54994;BME280;40891;47.242;8.648;2024-01-30T02:06:53;97810.09;;;2.68;100.00
54994;BME280;40891;47.242;8.648;2024-01-30T02:09:19;97815.16;;;2.66;100.00
54994;BME280;40891;47.242;8.648;2024-01-30T02:11:44;97817.53;;;2.67;100.00
54994;BME280;40891;47.242;8.648;2024-01-30T02:14:10;97818.31;;;2.68;100.00
54994;BME280;40891;47.242;8.648;2024-01-30T02:16:35;97817.09;;;2.65;100.00
54994;BME280;40891;47.242;8.648;2024-01-30T02:19:01;97822.00;;;2.53;100.00
54994;BME280;40891;47.242;8.648;2024-01-30T02:21:27;97820.03;;;2.53;100.00
54994;BME280;40891;47.242;8.648;2024-01-30T02:23:53;97822.00;;;2.53;100.00
54994;BME280;40891;47.242;8.648;2024-01-30T02:26:19;97825.09;;;2.51;100.00
54994;BME280;40891;47.242;8.648;2024-01-30T02:28:45;97812.88;;;2.49;100.00
54994;BME280;40891;47.242;8.648;2024-01-30T02:31:10;97822.28;;;2.48;100.00
54994;BME280;40891;47.242;8.648;2024-01-30T02:33:35;97815.22;;;2.47;100.00
54994;BME280;40891;47.242;8.648;2024-01-30T02:36:01;97823.09;;;2.48;100.00
54994;BME280;40891;47.242;8.648;2024-01-30T02:38:26;97810.91;;;2.46;100.00
54994;BME280;40891;47.242;8.648;2024-01-30T02:40:54;97810.81;;;2.42;100.00
54994;BME280;40891;47.242;8.648;2024-01-30T02:43:20;97813.97;;;2.44;100.00
54994;BME280;40891;47.242;8.648;2024-01-30T02:45:46;97815.59;;;2.45;100.00
54994;BME280;40891;47.242;8.648;2024-01-30T02:48:11;97814.78;;;2.45;100.00
54994;BME280;40891;47.242;8.648;2024-01-30T02:50:36;97821.41;;;2.44;100.00
54994;BME280;40891;47.242;8.648;2024-01-30T02:53:02;97818.66;;;2.44;100.00
54994;BME280;40891;47.242;8.648;2024-01-30T02:55:27;97811.19;;;2.41;100.00
54994;BME280;40891;47.242;8.648;2024-01-30T02:57:52;97807.28;;;2.42;100.00
54994;BME280;40891;47.242;8.648;2024-01-30T03:00:20;97810.81;;;2.42;100.00
54994;BME280;40891;47.242;8.648;2024-01-30T03:02:45;97812.41;;;2.43;100.00
54994;BME280;40891;47.242;8.648;2024-01-30T03:05:10;97809.97;;;2.38;100.00
54994;BME280;40891;47.242;8.648;2024-01-30T03:07:36;97809.97;;;2.38;100.00
54994;BME280;40891;47.242;8.648;2024-01-30T03:10:01;97809.59;;;2.40;100.00
54994;BME280;40891;47.242;8.648;2024-01-30T03:12:27;97803.69;;;2.38;100.00
54994;BME280;40891;47.242;8.648;2024-01-30T03:14:52;97802.88;;;2.37;100.00
54994;BME280;40891;47.242;8.648;2024-01-30T03:17:17;97806.00;;;2.36;100.00
54994;BME280;40891;47.242;8.648;2024-01-30T03:19:43;97805.91;;;2.32;100.00
54994;BME280;40891;47.242;8.648;2024-01-30T03:22:08;97805.06;;;2.28;100.00
54994;BME280;40891;47.242;8.648;2024-01-30T03:24:33;97803.03;;;2.25;100.00
54994;BME280;40891;47.242;8.648;2024-01-30T03:26:59;97800.91;;;2.15;100.00
54994;BME280;40891;47.242;8.648;2024-01-30T03:29:24;97809.47;;;2.14;100.00
54994;BME280;40891;47.242;8.648;2024-01-30T03:31:49;97809.13;;;2.15;100.00
54994;BME280;40891;47.242;8.648;2024-01-30T03:34:15;97806.31;;;2.12;100.00
54994;BME280;40891;47.242;8.648;2024-01-30T03:36:40;97808.81;;;2.20;100.00
54994;BME280;40891;47.242;8.648;2024-01-30T03:39:05;97802.84;;;2.15;100.00
54994;BME280;40891;47.242;8.648;2024-01-30T03:41:31;97800.81;;;2.12;100.00
54994;BME280;40891;47.242;8.648;2024-01-30T03:43:57;97809.28;;;2.03;100.00
54994;BME280;40891;47.242;8.648;2024-01-30T03:46:22;97799.09;;;2.03;100.00
54994;BME280;40891;47.242;8.648;2024-01-30T03:48:47;97802.91;;;1.99;100.00
54994;BME280;40891;47.242;8.648;2024-01-30T03:51:13;97806.13;;;2.01;100.00
54994;BME280;40891;47.242;8.648;2024-01-30T03:53:43;97808.06;;;2.00;100.00
54994;BME280;40891;47.242;8.648;2024-01-30T03:56:09;97807.69;;;2.02;100.00
54994;BME280;40891;47.242;8.648;2024-01-30T03:58:34;97810.06;;;2.03;100.00
54994;BME280;40891;47.242;8.648;2024-01-30T04:01:00;97814.41;;;2.04;100.00
54994;BME280;40891;47.242;8.648;2024-01-30T04:03:25;97807.31;;;2.03;100.00
54994;BME280;40891;47.242;8.648;2024-01-30T04:05:52;97816.28;;;2.00;100.00
54994;BME280;40891;47.242;8.648;2024-01-30T04:08:17;97806.84;;;1.98;100.00
54994;BME280;40891;47.242;8.648;2024-01-30T04:10:43;97802.91;;;1.99;100.00
54994;BME280;40891;47.242;8.648;2024-01-30T04:13:08;97805.22;;;1.97;100.00
54994;BME280;40891;47.242;8.648;2024-01-30T04:15:34;97812.22;;;1.94;100.00
54994;BME280;40891;47.242;8.648;2024-01-30T04:17:59;97810.25;;;1.91;100.00
54994;BME280;40891;47.242;8.648;2024-01-30T04:20:25;97809.44;;;1.91;100.00
54994;BME280;40891;47.242;8.648;2024-01-30T04:22:50;97809.16;;;1.96;100.00
54994;BME280;40891;47.242;8.648;2024-01-30T04:25:16;97806.75;;;1.94;100.00
54994;BME280;40891;47.242;8.648;2024-01-30T04:27:41;97800.41;;;1.90;100.00
54994;BME280;40891;47.242;8.648;2024-01-30T04:30:07;97798.91;;;1.93;100.00
54994;BME280;40891;47.242;8.648;2024-01-30T04:32:32;97804.81;;;1.95;100.00
54994;BME280;40891;47.242;8.648;2024-01-30T04:34:58;97803.16;;;1.90;100.00
54994;BME280;40891;47.242;8.648;2024-01-30T04:37:23;97801.94;;;1.88;100.00
54994;BME280;40891;47.242;8.648;2024-01-30T04:39:49;97804.25;;;1.86;100.00
54994;BME280;40891;47.242;8.648;2024-01-30T04:42:15;97803.53;;;1.89;100.00
54994;BME280;40891;47.242;8.648;2024-01-30T04:44:40;97800.03;;;1.92;100.00
54994;BME280;40891;47.242;8.648;2024-01-30T04:47:05;97802.34;;;1.90;100.00
54994;BME280;40891;47.242;8.648;2024-01-30T04:49:34;97798.09;;;1.92;100.00
54994;BME280;40891;47.242;8.648;2024-01-30T04:51:59;97802.34;;;1.90;100.00
54994;BME280;40891;47.242;8.648;2024-01-30T04:54:25;97804.25;;;1.86;100.00
54994;BME280;40891;47.242;8.648;2024-01-30T04:56:51;97797.53;;;1.83;100.00
54994;BME280;40891;47.242;8.648;2024-01-30T04:59:16;97799.56;;;1.86;100.00
54994;BME280;40891;47.242;8.648;2024-01-30T05:01:41;97805.03;;;1.86;100.00
54994;BME280;40891;47.242;8.648;2024-01-30T05:04:10;97801.50;;;1.86;100.00
54994;BME280;40891;47.242;8.648;2024-01-30T05:06:36;97805.91;;;1.90;100.00
54994;BME280;40891;47.242;8.648;2024-01-30T05:09:01;97812.19;;;1.91;100.00
54994;BME280;40891;47.242;8.648;2024-01-30T05:11:27;97806.69;;;1.91;100.00
54994;BME280;40891;47.242;8.648;2024-01-30T05:13:52;97818.09;;;1.93;100.00
54994;BME280;40891;47.242;8.648;2024-01-30T05:16:17;97819.69;;;1.94;100.00
54994;BME280;40891;47.242;8.648;2024-01-30T05:18:43;97816.16;;;1.93;100.00
54994;BME280;40891;47.242;8.648;2024-01-30T05:21:08;97811.47;;;1.94;100.00
54994;BME280;40891;47.242;8.648;2024-01-30T05:23:34;97828.63;;;1.91;100.00
54994;BME280;40891;47.242;8.648;2024-01-30T05:25:59;97830.16;;;1.88;100.00
54994;BME280;40891;47.242;8.648;2024-01-30T05:28:26;97827.03;;;1.90;100.00
54994;BME280;40891;47.242;8.648;2024-01-30T05:30:51;97829.78;;;1.90;100.00
54994;BME280;40891;47.242;8.648;2024-01-30T05:33:17;97823.81;;;1.84;100.00
54994;BME280;40891;47.242;8.648;2024-01-30T05:35:42;97821.41;;;1.83;100.00
54994;BME280;40891;47.242;8.648;2024-01-30T05:38:07;97826.09;;;1.82;100.00
54994;BME280;40891;47.242;8.648;2024-01-30T05:40:32;97828.19;;;1.89;100.00
54994;BME280;40891;47.242;8.648;2024-01-30T05:42:58;97840.41;;;1.91;100.00
54994;BME280;40891;47.242;8.648;2024-01-30T05:45:26;97839.94;;;1.89;100.00
54994;BME280;40891;47.242;8.648;2024-01-30T05:47:52;97841.91;;;1.89;100.00
54994;BME280;40891;47.242;8.648;2024-01-30T05:50:17;97845.56;;;1.96;100.00
54994;BME280;40891;47.242;8.648;2024-01-30T05:52:42;97837.34;;;1.96;100.00
54994;BME280;40891;47.242;8.648;2024-01-30T05:55:08;97841.63;;;1.94;100.00
54994;BME280;40891;47.242;8.648;2024-01-30T05:57:33;97841.03;;;1.85;100.00
54994;BME280;40891;47.242;8.648;2024-01-30T05:59:59;97847.94;;;1.79;100.00
54994;BME280;40891;47.242;8.648;2024-01-30T06:02:24;97841.63;;;1.75;100.00
54994;BME280;40891;47.242;8.648;2024-01-30T06:04:49;97842.38;;;1.75;100.00
54994;BME280;40891;47.242;8.648;2024-01-30T06:07:15;97853.28;;;1.72;100.00
54994;BME280;40891;47.242;8.648;2024-01-30T06:09:40;97853.72;;;1.74;100.00
54994;BME280;40891;47.242;8.648;2024-01-30T06:12:06;97853.72;;;1.74;100.00
54994;BME280;40891;47.242;8.648;2024-01-30T06:14:31;97850.53;;;1.72;100.00
54994;BME280;40891;47.242;8.648;2024-01-30T06:16:57;97859.47;;;1.69;100.00
54994;BME280;40891;47.242;8.648;2024-01-30T06:19:23;97860.28;;;1.69;100.00
54994;BME280;40891;47.242;8.648;2024-01-30T06:21:48;97855.06;;;1.64;100.00
54994;BME280;40891;47.242;8.648;2024-01-30T06:24:14;97852.69;;;1.63;100.00
54994;BME280;40891;47.242;8.648;2024-01-30T06:26:39;97859.41;;;1.65;100.00
54994;BME280;40891;47.242;8.648;2024-01-30T06:29:04;97862.59;;;1.67;100.00
54994;BME280;40891;47.242;8.648;2024-01-30T06:31:30;97858.63;;;1.65;100.00
54994;BME280;40891;47.242;8.648;2024-01-30T06:33:56;97866.03;;;1.64;100.00
54994;BME280;40891;47.242;8.648;2024-01-30T06:36:21;97861.50;;;1.72;100.00
54994;BME280;40891;47.242;8.648;2024-01-30T06:38:46;97857.31;;;1.78;100.00
54994;BME280;40891;47.242;8.648;2024-01-30T06:41:12;97863.22;;;1.80;100.00
54994;BME280;40891;47.242;8.648;2024-01-30T06:43:37;97864.94;;;1.84;100.00
54994;BME280;40891;47.242;8.648;2024-01-30T06:46:02;97868.44;;;1.85;100.00
54994;BME280;40891;47.242;8.648;2024-01-30T06:48:28;97873.22;;;1.88;100.00
54994;BME280;40891;47.242;8.648;2024-01-30T06:50:53;97878.31;;;1.89;100.00
54994;BME280;40891;47.242;8.648;2024-01-30T06:53:19;97873.63;;;1.90;100.00
54994;BME280;40891;47.242;8.648;2024-01-30T06:55:44;97874.88;;;1.92;100.00
54994;BME280;40891;47.242;8.648;2024-01-30T06:58:09;97870.19;;;1.93;100.00
54994;BME280;40891;47.242;8.648;2024-01-30T07:00:35;97882.75;;;1.94;100.00
54994;BME280;40891;47.242;8.648;2024-01-30T07:03:00;97879.22;;;1.93;100.00
54994;BME280;40891;47.242;8.648;2024-01-30T07:05:25;97882.25;;;1.88;100.00
54994;BME280;40891;47.242;8.648;2024-01-30T07:07:51;97888.94;;;1.91;100.00
54994;BME280;40891;47.242;8.648;2024-01-30T07:10:16;97876.47;;;1.93;100.00
54994;BME280;40891;47.242;8.648;2024-01-30T07:13:01;97884.34;;;1.95;100.00
54994;BME280;40891;47.242;8.648;2024-01-30T07:15:26;97878.13;;;1.98;100.00
54994;BME280;40891;47.242;8.648;2024-01-30T07:17:52;97887.31;;;2.05;100.00
54994;BME280;40891;47.242;8.648;2024-01-30T07:20:17;97890.25;;;2.16;100.00
54994;BME280;40891;47.242;8.648;2024-01-30T07:22:45;97888.09;;;2.25;100.00
54994;BME280;40891;47.242;8.648;2024-01-30T07:25:10;97892.50;;;2.30;100.00
54994;BME280;40891;47.242;8.648;2024-01-30T07:27:36;97893.00;;;2.35;100.00
54994;BME280;40891;47.242;8.648;2024-01-30T07:30:01;97897.78;;;2.38;100.00
54994;BME280;40891;47.242;8.648;2024-01-30T07:32:27;97896.69;;;2.43;100.00
54994;BME280;40891;47.242;8.648;2024-01-30T07:34:52;97888.16;;;2.48;100.00
54994;BME280;40891;47.242;8.648;2024-01-30T07:37:17;97897.47;;;2.62;100.00
54994;BME280;40891;47.242;8.648;2024-01-30T07:39:43;97897.41;;;2.82;100.00
54994;BME280;40891;47.242;8.648;2024-01-30T07:42:08;97895.00;;;2.99;100.00
54994;BME280;40891;47.242;8.648;2024-01-30T07:44:33;97893.47;;;3.02;100.00
54994;BME280;40891;47.242;8.648;2024-01-30T07:46:59;97890.75;;;3.05;100.00
54994;BME280;40891;47.242;8.648;2024-01-30T07:49:24;97896.34;;;3.09;100.00
54994;BME280;40891;47.242;8.648;2024-01-30T07:51:50;97894.72;;;3.08;100.00
54994;BME280;40891;47.242;8.648;2024-01-30T07:54:15;97904.50;;;3.05;100.00
54994;BME280;40891;47.242;8.648;2024-01-30T07:56:41;97900.22;;;3.08;100.00
54994;BME280;40891;47.242;8.648;2024-01-30T07:59:09;97903.84;;;3.12;100.00
54994;BME280;40891;47.242;8.648;2024-01-30T08:01:35;97901.53;;;3.14;100.00
54994;BME280;40891;47.242;8.648;2024-01-30T08:04:00;97901.56;;;3.17;100.00
54994;BME280;40891;47.242;8.648;2024-01-30T08:06:25;97903.97;;;3.19;100.00
54994;BME280;40891;47.242;8.648;2024-01-30T08:08:51;97903.72;;;3.27;100.00
54994;BME280;40891;47.242;8.648;2024-01-30T08:11:20;97910.06;;;3.31;100.00
54994;BME280;40891;47.242;8.648;2024-01-30T08:13:45;97906.69;;;3.41;100.00
54994;BME280;40891;47.242;8.648;2024-01-30T08:16:10;97899.78;;;3.51;100.00
54994;BME280;40891;47.242;8.648;2024-01-30T08:18:36;97901.63;;;3.70;100.00
54994;BME280;40891;47.242;8.648;2024-01-30T08:21:01;97905.44;;;3.88;100.00
54994;BME280;40891;47.242;8.648;2024-01-30T08:23:26;97899.22;;;4.21;100.00
54994;BME280;40891;47.242;8.648;2024-01-30T08:25:52;97900.06;;;4.58;100.00
54994;BME280;40891;47.242;8.648;2024-01-30T08:28:17;97895.88;;;5.11;100.00
54994;BME280;40891;47.242;8.648;2024-01-30T08:30:42;97894.03;;;5.73;100.00
54994;BME280;40891;47.242;8.648;2024-01-30T08:33:07;97890.09;;;6.43;100.00
54994;BME280;40891;47.242;8.648;2024-01-30T08:35:33;97891.06;;;7.10;98.63
54994;BME280;40891;47.242;8.648;2024-01-30T08:37:58;97891.09;;;7.67;94.15
54994;BME280;40891;47.242;8.648;2024-01-30T08:40:24;97887.03;;;8.24;89.78
54994;BME280;40891;47.242;8.648;2024-01-30T08:42:49;97885.47;;;9.13;85.58
54994;BME280;40891;47.242;8.648;2024-01-30T08:45:14;97888.56;;;10.18;79.80
54994;BME280;40891;47.242;8.648;2024-01-30T08:47:40;97880.34;;;11.32;73.16
54994;BME280;40891;47.242;8.648;2024-01-30T08:50:06;97874.16;;;12.17;67.54
54994;BME280;40891;47.242;8.648;2024-01-30T08:52:32;97866.66;;;13.28;61.73
54994;BME280;40891;47.242;8.648;2024-01-30T08:54:59;97857.34;;;13.83;57.95
54994;BME280;40891;47.242;8.648;2024-01-30T08:57:24;97861.00;;;14.25;54.54
54994;BME280;40891;47.242;8.648;2024-01-30T08:59:49;97859.44;;;14.81;52.78
54994;BME280;40891;47.242;8.648;2024-01-30T09:02:14;97858.25;;;15.08;52.30
54994;BME280;40891;47.242;8.648;2024-01-30T09:04:41;97854.59;;;15.48;50.16
54994;BME280;40891;47.242;8.648;2024-01-30T09:07:08;97863.78;;;15.74;49.00
54994;BME280;40891;47.242;8.648;2024-01-30T09:09:34;97861.75;;;15.62;49.50
54994;BME280;40891;47.242;8.648;2024-01-30T09:11:59;97849.16;;;15.92;48.63
54994;BME280;40891;47.242;8.648;2024-01-30T09:14:29;97858.31;;;15.58;48.60
54994;BME280;40891;47.242;8.648;2024-01-30T09:16:55;97855.94;;;15.69;49.26
54994;BME280;40891;47.242;8.648;2024-01-30T09:19:20;97847.94;;;14.92;49.66
54994;BME280;40891;47.242;8.648;2024-01-30T09:21:45;97857.44;;;14.41;51.92
54994;BME280;40891;47.242;8.648;2024-01-30T09:24:10;97863.13;;;13.44;55.01
54994;BME280;40891;47.242;8.648;2024-01-30T09:26:36;97860.34;;;12.69;57.38
54994;BME280;40891;47.242;8.648;2024-01-30T09:29:01;97869.09;;;12.32;58.78
54994;BME280;40891;47.242;8.648;2024-01-30T09:31:26;97860.16;;;12.40;59.21
54994;BME280;40891;47.242;8.648;2024-01-30T09:33:52;97865.97;;;13.05;57.73
54994;BME280;40891;47.242;8.648;2024-01-30T09:36:19;97856.09;;;13.36;56.28
54994;BME280;40891;47.242;8.648;2024-01-30T09:38:45;97859.13;;;12.89;57.10
54994;BME280;40891;47.242;8.648;2024-01-30T09:41:10;97869.31;;;11.75;60.46
54994;BME280;40891;47.242;8.648;2024-01-30T09:43:37;97873.13;;;11.08;64.00
54994;BME280;40891;47.242;8.648;2024-01-30T09:46:04;97860.94;;;11.98;62.26
54994;BME280;40891;47.242;8.648;2024-01-30T09:48:30;97849.47;;;13.62;56.60
54994;BME280;40891;47.242;8.648;2024-01-30T09:50:57;97853.13;;;15.19;51.03
54994;BME280;40891;47.242;8.648;2024-01-30T09:53:23;97845.66;;;16.34;47.66
54994;BME280;40891;47.242;8.648;2024-01-30T09:55:50;97831.63;;;17.70;44.31
54994;BME280;40891;47.242;8.648;2024-01-30T09:58:16;97834.09;;;18.26;43.10
54994;BME280;40891;47.242;8.648;2024-01-30T10:00:41;97821.31;;;19.21;40.31
54994;BME280;40891;47.242;8.648;2024-01-30T10:03:06;97827.53;;;18.65;41.42
54994;BME280;40891;47.242;8.648;2024-01-30T10:05:32;97826.81;;;19.57;39.35
54994;BME280;40891;47.242;8.648;2024-01-30T10:08:06;97828.81;;;19.66;38.84
54994;BME280;40891;47.242;8.648;2024-01-30T10:10:31;97828.16;;;19.29;39.56
54994;BME280;40891;47.242;8.648;2024-01-30T10:12:57;97827.91;;;19.84;38.72
54994;BME280;40891;47.242;8.648;2024-01-30T10:15:22;97822.13;;;20.34;37.09
54994;BME280;40891;47.242;8.648;2024-01-30T10:17:48;97824.16;;;20.72;37.14
54994;BME280;40891;47.242;8.648;2024-01-30T10:20:13;97822.91;;;21.32;36.10
54994;BME280;40891;47.242;8.648;2024-01-30T10:22:40;97819.56;;;21.48;34.63
54994;BME280;40891;47.242;8.648;2024-01-30T10:25:07;97821.06;;;21.14;36.11
54994;BME280;40891;47.242;8.648;2024-01-30T10:27:33;97829.50;;;19.85;38.18
54994;BME280;40891;47.242;8.648;2024-01-30T10:29:58;97828.78;;;19.75;38.67
54994;BME280;40891;47.242;8.648;2024-01-30T10:32:23;97814.91;;;20.33;37.61
54994;BME280;40891;47.242;8.648;2024-01-30T10:34:49;97818.13;;;20.94;37.20
54994;BME280;40891;47.242;8.648;2024-01-30T10:37:15;97807.22;;;21.16;35.36
54994;BME280;40891;47.242;8.648;2024-01-30T10:39:43;97811.44;;;20.53;36.37
54994;BME280;40891;47.242;8.648;2024-01-30T10:42:13;97809.34;;;22.05;34.20
54994;BME280;40891;47.242;8.648;2024-01-30T10:44:48;97793.50;;;22.79;33.41
54994;BME280;40891;47.242;8.648;2024-01-30T10:47:26;97797.72;;;24.20;31.48
54994;BME280;40891;47.242;8.648;2024-01-30T10:49:52;97789.34;;;24.64;30.45
54994;BME280;40891;47.242;8.648;2024-01-30T10:52:19;97785.56;;;25.84;29.17
54994;BME280;40891;47.242;8.648;2024-01-30T10:54:46;97778.22;;;26.16;28.63
54994;BME280;40891;47.242;8.648;2024-01-30T10:57:12;97791.78;;;25.05;29.80
54994;BME280;40891;47.242;8.648;2024-01-30T10:59:38;97782.91;;;24.75;30.82
54994;BME280;40891;47.242;8.648;2024-01-30T11:02:05;97774.16;;;25.84;29.22
54994;BME280;40891;47.242;8.648;2024-01-30T11:04:38;97775.97;;;25.37;28.57
54994;BME280;40891;47.242;8.648;2024-01-30T11:07:27;97780.06;;;26.02;27.89
54994;BME280;40891;47.242;8.648;2024-01-30T11:09:59;97766.75;;;27.79;26.91
54994;BME280;40891;47.242;8.648;2024-01-30T11:12:28;97769.06;;;26.40;27.41
54994;BME280;40891;47.242;8.648;2024-01-30T11:15:08;97769.00;;;25.05;29.57
54994;BME280;40891;47.242;8.648;2024-01-30T11:17:44;97759.69;;;26.91;26.20
54994;BME280;40891;47.242;8.648;2024-01-30T11:20:11;97758.28;;;26.10;27.52
54994;BME280;40891;47.242;8.648;2024-01-30T11:22:37;97781.16;;;24.18;30.94
54994;BME280;40891;47.242;8.648;2024-01-30T11:25:02;97771.97;;;22.67;33.29
54994;BME280;40891;47.242;8.648;2024-01-30T11:27:30;97781.44;;;21.29;34.53
54994;BME280;40891;47.242;8.648;2024-01-30T11:30:01;97781.41;;;19.46;39.87
54994;BME280;40891;47.242;8.648;2024-01-30T11:32:26;97782.91;;;17.91;43.08
54994;BME280;40891;47.242;8.648;2024-01-30T11:34:52;97781.81;;;18.70;42.16
54994;BME280;40891;47.242;8.648;2024-01-30T11:37:20;97769.03;;;19.44;40.45
54994;BME280;40891;47.242;8.648;2024-01-30T11:39:47;97761.78;;;19.99;39.26
54994;BME280;40891;47.242;8.648;2024-01-30T11:42:13;97755.00;;;20.59;38.00
54994;BME280;40891;47.242;8.648;2024-01-30T11:44:38;97752.66;;;21.30;36.13
54994;BME280;40891;47.242;8.648;2024-01-30T11:47:04;97745.44;;;22.45;35.03
54994;BME280;40891;47.242;8.648;2024-01-30T11:49:29;97743.19;;;22.28;34.68
54994;BME280;40891;47.242;8.648;2024-01-30T11:51:55;97745.66;;;21.81;35.83
54994;BME280;40891;47.242;8.648;2024-01-30T11:54:20;97760.06;;;20.16;38.43
54994;BME280;40891;47.242;8.648;2024-01-30T11:56:45;97754.94;;;19.91;39.56
54994;BME280;40891;47.242;8.648;2024-01-30T11:59:11;97759.19;;;18.88;41.64
54994;BME280;40891;47.242;8.648;2024-01-30T12:01:36;97766.50;;;17.99;43.79
54994;BME280;40891;47.242;8.648;2024-01-30T12:04:02;97763.81;;;17.77;44.57
54994;BME280;40891;47.242;8.648;2024-01-30T12:06:28;97746.91;;;19.75;40.70
54994;BME280;40891;47.242;8.648;2024-01-30T12:09:01;97726.59;;;22.67;35.39
54994;BME280;40891;47.242;8.648;2024-01-30T12:11:29;97715.84;;;24.52;31.98
54994;BME280;40891;47.242;8.648;2024-01-30T12:13:55;97721.53;;;25.90;29.63
54994;BME280;40891;47.242;8.648;2024-01-30T12:16:21;97706.66;;;26.60;28.19
54994;BME280;40891;47.242;8.648;2024-01-30T12:18:46;97708.75;;;27.00;27.49
54994;BME280;40891;47.242;8.648;2024-01-30T12:21:11;97712.50;;;27.14;27.70
54994;BME280;40891;47.242;8.648;2024-01-30T12:23:37;97706.88;;;28.11;26.52
54994;BME280;40891;47.242;8.648;2024-01-30T12:26:04;97696.31;;;29.12;25.84
54994;BME280;40891;47.242;8.648;2024-01-30T12:28:32;97707.41;;;28.09;25.65
54994;BME280;40891;47.242;8.648;2024-01-30T12:31:04;97704.56;;;28.28;25.43
54994;BME280;40891;47.242;8.648;2024-01-30T12:33:30;97711.84;;;27.62;26.14
54994;BME280;40891;47.242;8.648;2024-01-30T12:35:56;97709.75;;;28.11;25.59
54994;BME280;40891;47.242;8.648;2024-01-30T12:38:22;97706.56;;;28.14;25.28
54994;BME280;40891;47.242;8.648;2024-01-30T12:40:49;97705.34;;;28.47;25.37
54994;BME280;40891;47.242;8.648;2024-01-30T12:43:14;97701.88;;;28.36;24.98
54994;BME280;40891;47.242;8.648;2024-01-30T12:45:41;97709.00;;;28.48;24.45
54994;BME280;40891;47.242;8.648;2024-01-30T12:48:07;97700.25;;;28.40;24.44
54994;BME280;40891;47.242;8.648;2024-01-30T12:50:32;97693.72;;;28.02;24.54
54994;BME280;40891;47.242;8.648;2024-01-30T12:52:57;97699.66;;;28.04;23.63